PST,Max TemperatureF,Mean TemperatureF,Min TemperatureF,Max Dew PointF,MeanDew PointF,Min DewpointF,Max Humidity, Mean Humidity, Min Humidity, Max Sea Level PressureIn, Mean Sea Level PressureIn, Min Sea Level PressureIn, Max VisibilityMiles, Mean VisibilityMiles, Min VisibilityMiles, Max Wind SpeedMPH, Mean Wind SpeedMPH, Max Gust SpeedMPH,PrecipitationIn, CloudCover, Events, WindDirDegrees
2012-12-1,64,60,55,55,54,52,88,79,68,30.19,30.13,30.10,10,7,3,4,1,,0.00,8,,250
2012-12-2,60,58,55,55,55,54,100,90,77,30.15,30.12,30.07,10,6,3,7,1,,0.00,8,,233
2012-12-3,66,60,55,57,55,54,100,80,68,30.20,30.16,30.12,10,8,4,9,3,,0.00,6,,247
2012-12-4,69,60,51,55,50,45,94,66,43,30.25,30.19,30.15,10,8,3,6,1,,0.00,6,,237
2012-12-5,73,58,42,50,41,34,81,50,25,30.14,30.07,30.02,10,10,10,7,1,,0.00,4,,251
2012-12-6,64,56,48,52,50,46,100,81,64,30.01,29.94,29.89,3,2,0,5,1,,0.00,3,Fog,226
2012-12-7,78,60,42,45,35,25,87,40,15,29.97,29.94,29.89,10,9,7,10,4,,0.00,0,,52
2012-12-8,71,56,41,45,34,27,66,44,23,29.99,29.94,29.90,10,10,10,6,1,,0.00,1,,250
2012-12-9,69,54,39,46,38,34,81,48,28,30.06,30.03,29.99,10,9,7,7,1,,0.00,6,,256
2012-12-10,75,60,44,32,27,23,61,28,16,30.15,30.08,30.03,10,10,10,18,3,20,0.00,0,,299
2012-12-11,73,56,39,37,30,25,70,37,16,30.06,30.00,29.94,10,9,7,6,2,,0.00,2,,245
2012-12-12,60,48,37,45,41,32,81,61,48,29.98,29.90,29.86,10,9,7,13,4,,0.00,6,,181
2012-12-13,51,50,48,48,46,43,94,87,76,29.83,29.79,29.74,7,5,2,12,3,,0.00,8,Rain,68
2012-12-14,53,48,42,39,36,30,81,64,41,29.98,29.91,29.84,10,10,10,13,4,,0.00,7,,163
2012-12-15,53,48,42,41,38,34,87,68,47,30.05,30.01,29.99,10,9,7,7,1,,0.00,4,,250
2012-12-16,53,48,44,46,43,39,87,76,62,30.17,30.14,30.12,10,9,7,7,2,,0.00,8,,273
2012-12-17,60,55,50,48,48,46,94,75,63,30.16,30.10,30.02,10,7,3,7,1,,0.00,7,,235
2012-12-18,55,50,46,50,42,16,94,73,29,29.89,29.85,29.79,10,7,1,17,4,24,0.00,7,,265
2012-12-19,55,48,39,52,16,7,88,31,15,30.27,30.20,30.13,10,10,7,18,7,20,0.00,0,,35
2012-12-20,60,45,30,30,22,16,86,42,19,30.25,30.16,30.10,10,10,10,6,0,,0.00,0,,240
2012-12-21,62,46,30,68,27,18,80,36,5,30.12,30.08,30.04,10,10,10,7,3,,0.00,4,,108
2012-12-22,59,46,33,41,29,27,75,46,29,30.16,30.13,30.10,10,10,10,8,2,,0.00,4,,244
2012-12-23,59,52,46,46,42,39,77,63,48,30.21,30.16,30.12,10,9,7,8,3,,0.00,6,,245
2012-12-24,60,54,48,50,47,34,100,82,36,30.12,30.07,29.99,10,7,1,6,2,,0.00,6,Rain,191
2012-12-25,57,50,42,39,34,25,76,53,29,30.12,30.07,30.01,10,10,10,5,1,,0.00,6,,290
2012-12-26,53,50,46,46,44,43,93,82,67,29.97,29.94,29.92,10,7,2,9,2,,0.00,7,Rain,248
2012-12-27,57,48,39,41,32,25,93,55,29,30.06,29.99,29.94,10,9,7,10,3,,0.00,2,,333
2012-12-28,57,45,33,30,23,18,75,36,23,30.18,30.11,30.07,10,10,10,7,1,,0.00,3,,247
2012-12-29,55,45,35,43,36,27,93,72,44,30.08,30.02,29.97,10,7,4,9,4,,0.00,6,Rain,59
2012-12-30,51,44,37,39,34,27,93,65,41,30.00,29.94,29.89,10,10,10,12,2,,0.00,5,,269
2012-12-31,57,45,33,39,24,16,76,42,21,30.23,30.18,30.14,10,10,10,12,3,21,0.00,1,,292